createdAt,value
2019-01-27T00:03:41.877Z,99.9
2019-01-27T00:08:44.308Z,99.9
2019-01-27T00:13:46.768Z,99.9
2019-01-27T00:18:49.203Z,99.9
2019-01-27T00:23:51.701Z,99.9
2019-01-27T00:28:54.185Z,99.9
2019-01-27T00:33:56.577Z,99.9
2019-01-27T00:38:59.040Z,99.9
2019-01-27T00:44:01.512Z,99.9
2019-01-27T00:49:03.983Z,99.9
2019-01-27T00:54:06.414Z,99.9
2019-01-27T00:59:08.899Z,99.9
2019-01-27T01:04:11.322Z,99.9
2019-01-27T01:09:13.797Z,99.9
2019-01-27T01:14:16.289Z,99.9
2019-01-27T01:19:18.717Z,99.9
2019-01-27T01:24:21.193Z,99.9
2019-01-27T01:29:23.612Z,99.9
2019-01-27T01:34:26.062Z,99.9
2019-01-27T01:39:28.531Z,99.9
2019-01-27T01:44:31.020Z,99.9
2019-01-27T01:49:33.428Z,99.9
2019-01-27T01:54:35.887Z,99.9
2019-01-27T01:59:38.341Z,99.9
2019-01-27T02:04:40.886Z,99.9
2019-01-27T02:09:43.279Z,99.9
2019-01-27T02:14:45.720Z,99.9
2019-01-27T02:19:48.177Z,99.9
2019-01-27T02:24:50.630Z,99.9
2019-01-27T02:29:53.103Z,99.9
2019-01-27T02:34:55.535Z,99.9
2019-01-27T02:39:58.012Z,99.9
2019-01-27T02:45:00.522Z,99.9
2019-01-27T02:50:02.964Z,99.9
2019-01-27T02:55:05.385Z,99.9
2019-01-27T03:00:07.841Z,99.9
2019-01-27T03:05:10.283Z,99.9
2019-01-27T03:10:12.774Z,99.9
2019-01-27T03:15:15.229Z,99.9
2019-01-27T03:20:17.659Z,99.9
2019-01-27T03:25:20.112Z,99.9
2019-01-27T03:30:22.583Z,99.9
2019-01-27T03:35:25.018Z,99.9
2019-01-27T03:40:27.509Z,99.9
2019-01-27T03:45:29.940Z,99.9
2019-01-27T03:50:32.463Z,99.9
2019-01-27T03:55:34.944Z,99.9
2019-01-27T04:00:37.328Z,99.9
2019-01-27T04:05:39.834Z,99.9
2019-01-27T04:10:42.220Z,99.9
2019-01-27T04:15:44.669Z,99.9
2019-01-27T04:20:47.190Z,99.9
2019-01-27T04:25:49.609Z,99.9
2019-01-27T04:30:52.095Z,99.9
2019-01-27T04:35:54.531Z,99.9
2019-01-27T04:40:56.970Z,99.9
2019-01-27T04:45:59.428Z,99.9
2019-01-27T04:51:01.908Z,99.9
2019-01-27T04:56:04.333Z,99.9
2019-01-27T05:01:06.791Z,99.9
2019-01-27T05:06:09.291Z,99.9
2019-01-27T05:11:11.714Z,99.9
2019-01-27T05:16:14.175Z,99.9
2019-01-27T05:21:16.643Z,99.9
2019-01-27T05:26:19.101Z,99.9
2019-01-27T05:31:21.559Z,99.9
2019-01-27T05:36:23.983Z,99.9
2019-01-27T05:46:28.917Z,99.9
2019-01-27T05:51:31.431Z,99.9
2019-01-27T05:56:33.832Z,99.9
2019-01-27T06:01:36.380Z,99.9
2019-01-27T06:06:38.736Z,99.9
2019-01-27T06:11:41.288Z,99.9
2019-01-27T06:16:43.645Z,99.9
2019-01-27T06:21:46.093Z,99.9
2019-01-27T06:26:48.549Z,99.9
2019-01-27T06:31:51.020Z,99.9
2019-01-27T06:36:53.481Z,99.9
2019-01-27T06:41:55.932Z,99.9
2019-01-27T06:46:58.394Z,99.9
2019-01-27T06:52:00.881Z,99.9
2019-01-27T06:57:03.321Z,99.9
2019-01-27T07:02:05.758Z,99.9
2019-01-27T07:07:08.241Z,99.9
2019-01-27T07:12:10.749Z,99.9
2019-01-27T07:17:13.132Z,99.9
2019-01-27T07:22:15.586Z,99.9
2019-01-27T07:27:18.049Z,99.9
2019-01-27T07:32:20.501Z,99.9
2019-01-27T07:37:22.966Z,99.9
2019-01-27T07:42:25.399Z,99.9
2019-01-27T07:47:27.871Z,99.9
2019-01-27T07:52:30.332Z,99.9
2019-01-27T07:57:32.801Z,99.9
2019-01-27T08:02:35.244Z,99.9
2019-01-27T08:07:37.697Z,99.9
2019-01-27T08:12:40.174Z,99.9
2019-01-27T08:17:42.618Z,99.9
2019-01-27T08:22:45.096Z,99.9
2019-01-27T08:27:47.542Z,99.9
2019-01-27T08:32:49.997Z,99.9
2019-01-27T08:37:52.430Z,99.9
2019-01-27T08:42:54.934Z,99.9
2019-01-27T08:47:57.427Z,99.9
2019-01-27T08:52:59.812Z,99.9
2019-01-27T08:58:02.306Z,99.9
2019-01-27T09:03:04.792Z,99.9
2019-01-27T09:08:07.213Z,99.9
2019-01-27T09:18:12.289Z,87.5
2019-01-27T09:23:14.576Z,60.4
2019-01-27T09:28:17.076Z,60.6
2019-01-27T09:33:19.596Z,62.3
2019-01-27T09:38:21.949Z,63
2019-01-27T09:43:24.437Z,37.2
2019-01-27T09:48:26.889Z,1
2019-01-27T09:53:29.315Z,1
2019-01-27T09:58:31.775Z,1
2019-01-27T10:03:34.315Z,1
2019-01-27T10:08:36.754Z,6
2019-01-27T10:13:39.181Z,4.5
2019-01-27T10:18:41.663Z,10.3
2019-01-27T10:23:44.065Z,16.4
2019-01-27T10:28:46.543Z,26.8
2019-01-27T10:33:48.989Z,32
2019-01-27T10:38:51.452Z,33.7
2019-01-27T10:43:53.937Z,31.2
2019-01-27T10:48:56.379Z,33.2
2019-01-27T10:53:58.811Z,34.1
2019-01-27T10:59:01.312Z,38.9
2019-01-27T11:04:03.732Z,35.2
2019-01-27T11:09:06.181Z,34.3
2019-01-27T11:14:08.631Z,26.6
2019-01-27T11:19:11.175Z,21.4
2019-01-27T11:24:13.542Z,18.2
2019-01-27T11:29:15.993Z,13.1
2019-01-27T11:34:18.482Z,9.8
2019-01-27T11:39:20.921Z,8.2
2019-01-27T11:44:23.364Z,14.5
2019-01-27T11:49:26.120Z,15.6
2019-01-27T11:54:28.281Z,23.9
2019-01-27T11:59:30.737Z,19.3
2019-01-27T12:04:33.211Z,2.4
2019-01-27T12:09:35.654Z,1
2019-01-27T12:14:38.112Z,1
2019-01-27T12:19:40.668Z,1
2019-01-27T12:24:43.064Z,1
2019-01-27T12:29:45.487Z,1
2019-01-27T12:34:47.949Z,1
2019-01-27T12:39:50.389Z,1
2019-01-27T12:44:52.854Z,1
2019-01-27T12:49:55.321Z,1
2019-01-27T12:54:57.773Z,1
2019-01-27T13:00:00.255Z,1
2019-01-27T13:05:02.719Z,1
2019-01-27T13:10:05.269Z,1
2019-01-27T13:15:07.608Z,1
2019-01-27T13:20:10.068Z,1
2019-01-27T13:25:12.513Z,1
2019-01-27T13:30:14.994Z,1
2019-01-27T13:35:17.528Z,1
2019-01-27T13:40:19.882Z,1
2019-01-27T13:45:22.331Z,1
2019-01-27T13:50:25.097Z,1
2019-01-27T13:55:27.249Z,1
2019-01-27T14:00:29.715Z,1
2019-01-27T14:05:32.188Z,1
2019-01-27T14:10:34.660Z,1
2019-01-27T14:15:37.099Z,1
2019-01-27T14:20:39.533Z,2.6
2019-01-27T14:25:42.048Z,8.3
2019-01-27T14:30:44.463Z,13.4
2019-01-27T14:35:46.919Z,21.2
2019-01-27T14:40:49.362Z,29.5
2019-01-27T14:45:51.829Z,27.6
2019-01-27T14:50:54.287Z,24.8
2019-01-27T14:55:56.734Z,27
2019-01-27T15:00:59.186Z,28.5
2019-01-27T15:06:01.687Z,28.4
2019-01-27T15:11:04.103Z,28.1
2019-01-27T15:16:06.562Z,27.9
2019-01-27T15:21:09.016Z,35.7
2019-01-27T15:26:11.482Z,41.1
2019-01-27T15:31:13.980Z,46.9
2019-01-27T15:36:16.455Z,53.9
2019-01-27T15:41:18.850Z,62.1
2019-01-27T15:46:21.393Z,70.5
2019-01-27T15:51:23.777Z,86.2
2019-01-27T15:56:26.233Z,96.9
2019-01-27T16:01:28.678Z,99.9
2019-01-27T16:06:31.246Z,99.9
2019-01-27T16:11:33.635Z,99.9
2019-01-27T16:16:36.075Z,99.9
2019-01-27T16:21:38.507Z,99.9
2019-01-27T16:26:40.972Z,99.9
2019-01-27T16:31:43.436Z,99.9
2019-01-27T16:36:45.889Z,99.9
2019-01-27T16:41:48.373Z,99.9
2019-01-27T16:46:50.803Z,99.9
2019-01-27T16:51:53.265Z,99.9
2019-01-27T16:56:55.708Z,99.9
2019-01-27T17:01:59.082Z,99.9
2019-01-27T17:07:00.699Z,99.9
2019-01-27T17:12:03.122Z,99.9
2019-01-27T17:17:05.545Z,99.9
2019-01-27T17:22:08.035Z,99.9
2019-01-27T17:27:10.444Z,99.9
2019-01-27T17:32:12.903Z,99.9
2019-01-27T17:37:15.436Z,99.9
2019-01-27T17:42:17.858Z,99.9
2019-01-27T17:47:20.279Z,99.9
2019-01-27T17:52:22.761Z,99.9
2019-01-27T17:57:25.247Z,99.9
2019-01-27T18:02:27.671Z,99.9
2019-01-27T18:07:30.119Z,99.9
2019-01-27T18:12:32.695Z,99.9
2019-01-27T18:17:35.034Z,99.9
2019-01-27T18:22:37.500Z,99.9
2019-01-27T18:27:39.938Z,99.9
2019-01-27T18:32:42.410Z,99.9
2019-01-27T18:37:44.854Z,99.9
2019-01-27T18:42:47.386Z,99.9
2019-01-27T18:47:49.768Z,99.9
2019-01-27T18:52:52.222Z,99.9
2019-01-27T18:57:54.696Z,99.9
2019-01-27T19:02:57.137Z,99.9
2019-01-27T19:07:59.588Z,99.9
2019-01-27T19:13:02.107Z,99.9
2019-01-27T19:18:04.531Z,99.9
2019-01-27T19:23:06.996Z,99.9
2019-01-27T19:28:09.417Z,99.9
2019-01-27T19:33:11.891Z,99.9
2019-01-27T19:38:14.376Z,99.9
2019-01-27T19:43:16.812Z,99.9
2019-01-27T19:48:19.335Z,99.9
2019-01-27T19:53:21.799Z,99.9
2019-01-27T19:58:24.196Z,99.9
2019-01-27T20:03:26.624Z,99.9
2019-01-27T20:08:29.118Z,99.9
2019-01-27T20:13:31.555Z,99.9
2019-01-27T20:18:34.074Z,99.9
2019-01-27T20:23:36.587Z,99.9
2019-01-27T20:28:38.920Z,99.9
2019-01-27T20:33:41.362Z,99.9
2019-01-27T20:38:43.819Z,99.9
2019-01-27T20:43:46.360Z,99.9
2019-01-27T20:48:48.764Z,99.9
2019-01-27T20:53:51.268Z,99.9
2019-01-27T20:58:53.666Z,99.9
2019-01-27T21:03:56.106Z,99.9
2019-01-27T21:08:58.579Z,99.9
2019-01-27T21:14:01.025Z,99.9
2019-01-27T21:19:03.481Z,99.9
2019-01-27T21:24:05.938Z,99.9
2019-01-27T21:29:08.382Z,99.9
2019-01-27T21:34:10.849Z,99.9
2019-01-27T21:39:13.403Z,99.9
2019-01-27T21:44:15.776Z,99.9
2019-01-27T21:49:18.214Z,99.9
2019-01-27T21:54:20.756Z,99.9
2019-01-27T21:59:23.131Z,99.9
2019-01-27T22:04:25.657Z,99.9
2019-01-27T22:09:28.135Z,99.9
2019-01-27T22:14:30.531Z,99.9
2019-01-27T22:19:32.994Z,99.9
2019-01-27T22:24:35.437Z,99.9
2019-01-27T22:29:37.862Z,99.9
2019-01-27T22:34:40.334Z,99.9
2019-01-27T22:39:42.787Z,99.9
2019-01-27T22:44:45.528Z,99.9
2019-01-27T22:49:47.708Z,99.9
2019-01-27T22:54:50.198Z,99.9
2019-01-27T22:59:52.625Z,99.9
2019-01-27T23:04:55.065Z,99.9
2019-01-27T23:09:57.533Z,99.9
2019-01-27T23:14:59.988Z,99.9
2019-01-27T23:20:02.612Z,99.9
2019-01-27T23:25:04.932Z,99.9
2019-01-27T23:30:07.393Z,99.9
2019-01-27T23:35:09.806Z,99.9
2019-01-27T23:40:12.297Z,99.9
2019-01-27T23:45:14.740Z,99.9
2019-01-27T23:50:17.185Z,99.9
2019-01-27T23:55:19.645Z,99.9
